Time;durP1;ratioP1;P1;durP2;ratioP2;P2;SDS_P1;SDS_P2;PMS_P1;PMS_P2;Temp;Humidity;BMP_temperature;BMP_pressure;BME280_temperature;BME280_humidity;BME280_pressure;Samples;Min_cycle;Max_cycle;Signal;HPM_P1;HPM_P2
2022/08/31 00:04:48;;;;;;;;;;;563.50;2432.00;;;;;;5034465;28;20390;-53
2022/08/31 00:07:13;;;;;;;;;;;563.50;2432.00;;;;;;5034221;28;19909;-53
2022/08/31 00:09:39;;;;;;;;;;;563.60;2432.00;;;;;;5034583;28;19967;-53
2022/08/31 00:12:05;;;;;;;;;;;563.50;2432.00;;;;;;5034236;28;19909;-53
2022/08/31 00:14:31;;;;;;;;;;;563.60;2432.00;;;;;;5034413;28;20375;-54
2022/08/31 00:16:56;;;;;;;;;;;563.50;2432.00;;;;;;5034097;28;20385;-53
2022/08/31 00:19:22;;;;;;;;;;;563.60;2432.00;;;;;;5034286;28;19952;-54
2022/08/31 00:21:48;;;;;;;;;;;563.50;2432.00;;;;;;5033919;28;20383;-53
2022/08/31 00:24:13;;;;;;;;;;;563.50;2432.00;;;;;;5032245;28;19932;-53
2022/08/31 00:26:39;;;;;;;;;;;563.50;2432.00;;;;;;5034297;28;20008;-53
2022/08/31 00:29:05;;;;;;;;;;;563.50;2432.00;;;;;;5033762;28;20357;-53
2022/08/31 00:31:30;;;;;;;;;;;563.50;2432.00;;;;;;5033964;28;19916;-53
2022/08/31 00:33:56;;;;;;;;;;;563.50;2432.00;;;;;;5033871;28;20016;-55
2022/08/31 00:36:23;;;;;;;;;;;563.50;2432.00;;;;;;5033805;28;19956;-53
2022/08/31 00:38:49;;;;;;;;;;;563.50;2432.00;;;;;;5033822;28;19963;-53
2022/08/31 00:41:16;;;;;;;;;;;563.50;2432.00;;;;;;5033549;28;19955;-53
2022/08/31 00:43:47;;;;;;;;;;;563.40;2432.00;;;;;;5033858;28;19921;-54
2022/08/31 00:46:17;;;;;;;;;;;563.60;2432.00;;;;;;5033711;28;20331;-53
2022/08/31 00:48:52;;;;;;;;;;;563.50;2432.00;;;;;;5033447;28;19990;-54
2022/08/31 00:51:18;;;;;;;;;;;563.40;2432.00;;;;;;5033288;28;20425;-53
2022/08/31 00:53:44;;;;;;;;;;;563.40;2432.00;;;;;;5033372;28;19917;-53
2022/08/31 00:56:10;;;;;;;;;;;563.30;2432.00;;;;;;5033663;28;19909;-54
2022/08/31 00:58:35;;;;;;;;;;;563.40;2432.00;;;;;;5033372;28;19948;-53
2022/08/31 01:01:01;;;;;;;;;;;;;;;;;;5033386;28;20007;-53
2022/08/31 01:03:27;;;;;;;;;;;;;;;;;;5033157;28;19910;-54
2022/08/31 01:05:53;;;;;;;;;;;563.50;2432.00;;;;;;5033119;28;19909;-53
2022/08/31 01:08:18;;;;;;;;;;;563.40;2432.00;;;;;;5032907;28;19913;-55
2022/08/31 01:10:44;;;;;;;;;;;563.30;2432.00;;;;;;5033032;28;19910;-53
2022/08/31 01:13:13;;;;;;;;;;;563.30;2432.00;;;;;;5033267;28;19909;-53
2022/08/31 01:15:41;;;;;;;;;;;563.30;2432.00;;;;;;5033276;28;19955;-53
2022/08/31 01:18:07;;;;;;;;;;;563.30;2432.00;;;;;;5032899;28;19964;-53
2022/08/31 01:20:51;;;;;;;;;;;563.20;2432.00;;;;;;5032971;28;19913;-53
2022/08/31 01:23:20;;;;;;;;;;;563.30;2432.00;;;;;;5032770;28;19925;-53
2022/08/31 01:25:46;;;;;;;;;;;563.20;2432.00;;;;;;5032674;28;19917;-53
2022/08/31 01:28:12;;;;;;;;;;;563.20;2432.00;;;;;;5033046;28;19913;-52
2022/08/31 01:30:38;;;;;;;;;;;538.50;2406.40;;;;;;5032536;28;20390;-53
2022/08/31 01:33:04;;;;;;;;;;;538.50;2406.40;;;;;;5032806;28;19909;-53
2022/08/31 01:35:29;;;;;;;;;;;538.40;2406.40;;;;;;5032739;28;19963;-53
2022/08/31 01:37:55;;;;;;;;;;;538.50;2406.40;;;;;;5032822;28;20410;-52
2022/08/31 01:40:24;;;;;;;;;;;538.50;2406.40;;;;;;5032905;28;19967;-53
2022/08/31 01:42:49;;;;;;;;;;;;;;;;;;5032759;28;19931;-52
2022/08/31 01:45:16;;;;;;;;;;;;;;;;;;5032348;28;19923;-53
2022/08/31 01:47:42;;;;;;;;;;;;;;;;;;5032570;28;19917;-53
2022/08/31 01:50:08;;;;;;;;;;;538.40;2406.40;;;;;;5032302;28;19909;-53
2022/08/31 01:52:35;;;;;;;;;;;538.00;2406.40;;;;;;5032170;28;19920;-52
2022/08/31 01:55:02;;;;;;;;;;;538.00;2406.40;;;;;;5032675;28;19914;-53
2022/08/31 01:57:28;;;;;;;;;;;537.90;2406.40;;;;;;5032362;28;19913;-53
2022/08/31 01:59:53;;;;;;;;;;;538.00;2406.40;;;;;;5032144;28;20007;-54
2022/08/31 02:02:19;;;;;;;;;;;538.10;2406.40;;;;;;5032312;28;19960;-53
2022/08/31 02:04:44;;;;;;;;;;;538.10;2406.40;;;;;;5031842;28;19917;-53
2022/08/31 02:07:10;;;;;;;;;;;538.10;2406.40;;;;;;5032575;28;20020;-53
2022/08/31 02:09:35;;;;;;;;;;;538.20;2406.40;;;;;;5032168;28;20381;-53
2022/08/31 02:12:01;;;;;;;;;;;538.20;2406.40;;;;;;5032218;28;20286;-53
2022/08/31 02:14:26;;;;;;;;;;;538.20;2406.40;;;;;;5031879;28;20273;-53
2022/08/31 02:16:52;;;;;;;;;;;538.20;2406.40;;;;;;5032068;28;19913;-53
2022/08/31 02:19:18;;;;;;;;;;;538.30;2406.40;;;;;;5030702;28;19919;-53
2022/08/31 02:21:44;;;;;;;;;;;538.30;2406.40;;;;;;5030474;28;19921;-53
2022/08/31 02:24:11;;;;;;;;;;;538.30;2406.40;;;;;;5031782;28;19921;-53
2022/08/31 02:26:37;;;;;;;;;;;538.30;2406.40;;;;;;5031640;28;20393;-53
2022/08/31 02:29:02;;;;;;;;;;;538.20;2406.40;;;;;;5031969;28;19909;-52
2022/08/31 02:31:28;;;;;;;;;;;538.20;2406.40;;;;;;5031459;28;19978;-53
2022/08/31 02:33:53;;;;;;;;;;;538.10;2406.40;;;;;;5031603;28;19916;-53
2022/08/31 02:36:19;;;;;;;;;;;538.10;2406.40;;;;;;5031576;28;19968;-53
2022/08/31 02:38:44;;;;;;;;;;;537.90;2406.40;;;;;;5031615;28;19909;-54
2022/08/31 02:41:10;;;;;;;;;;;537.90;2406.40;;;;;;5031659;28;19909;-53
2022/08/31 02:43:36;;;;;;;;;;;537.90;2406.40;;;;;;5031145;28;19909;-55
2022/08/31 02:46:01;;;;;;;;;;;537.90;2406.40;;;;;;5031469;28;19913;-52
2022/08/31 02:48:27;;;;;;;;;;;537.90;2406.40;;;;;;5031267;28;19909;-53
2022/08/31 02:50:53;;;;;;;;;;;538.00;2406.40;;;;;;5031358;28;19913;-53
2022/08/31 02:53:21;;;;;;;;;;;538.00;2406.40;;;;;;5031403;28;20020;-52
2022/08/31 02:55:47;;;;;;;;;;;538.00;2406.40;;;;;;5031501;28;19915;-52
2022/08/31 02:58:13;;;;;;;;;;;538.20;2406.40;;;;;;5031318;28;20008;-53
2022/08/31 03:00:39;;;;;;;;;;;538.10;2406.40;;;;;;5031349;28;19909;-53
2022/08/31 03:03:05;;;;;;;;;;;538.20;2406.40;;;;;;5031119;28;20335;-53
2022/08/31 03:05:31;;;;;;;;;;;538.20;2406.40;;;;;;5031158;28;20024;-53
2022/08/31 03:07:56;;;;;;;;;;;538.30;2406.40;;;;;;5031279;28;20329;-53
2022/08/31 03:10:23;;;;;;;;;;;538.40;2406.40;;;;;;5031405;28;20351;-53
2022/08/31 03:12:49;;;;;;;;;;;538.30;2406.40;;;;;;5031042;28;19909;-54
2022/08/31 03:15:16;;;;;;;;;;;538.40;2406.40;;;;;;5030935;28;19909;-53
2022/08/31 03:17:42;;;;;;;;;;;538.40;2406.40;;;;;;5031150;28;19920;-52
2022/08/31 03:20:08;;;;;;;;;;;538.30;2406.40;;;;;;5030861;28;19913;-53
2022/08/31 03:22:34;;;;;;;;;;;538.30;2406.40;;;;;;5030643;28;20359;-53
2022/08/31 03:25:00;;;;;;;;;;;538.30;2406.40;;;;;;5029918;28;19928;-53
2022/08/31 03:27:28;;;;;;;;;;;538.30;2406.40;;;;;;5031041;28;19909;-52
2022/08/31 03:29:53;;;;;;;;;;;538.30;2406.40;;;;;;5030882;28;20256;-53
2022/08/31 03:32:19;;;;;;;;;;;538.30;2406.40;;;;;;5032673;28;19916;-53
2022/08/31 03:34:44;;;;;;;;;;;538.30;2406.40;;;;;;5034917;28;19909;-52
2022/08/31 03:37:10;;;;;;;;;;;538.20;2406.40;;;;;;5035054;28;19956;-52
2022/08/31 03:39:36;;;;;;;;;;;538.20;2406.40;;;;;;5034877;28;20348;-53
2022/08/31 03:42:02;;;;;;;;;;;538.20;2406.40;;;;;;5035305;28;19952;-53
2022/08/31 03:44:28;;;;;;;;;;;538.00;2406.40;;;;;;5034931;28;19956;-52
2022/08/31 03:46:54;;;;;;;;;;;538.20;2406.40;;;;;;5034793;28;19992;-53
2022/08/31 03:49:20;;;;;;;;;;;538.20;2406.40;;;;;;5035046;28;20352;-53
2022/08/31 03:51:46;;;;;;;;;;;538.10;2406.40;;;;;;5034442;28;19920;-53
2022/08/31 03:54:11;;;;;;;;;;;538.10;2406.40;;;;;;5034775;28;20378;-53
2022/08/31 03:56:38;;;;;;;;;;;538.10;2406.40;;;;;;5034633;28;20279;-54
2022/08/31 03:59:03;;;;;;;;;;;538.00;2406.40;;;;;;5034519;28;19916;-55
2022/08/31 04:01:29;;;;;;;;;;;538.00;2406.40;;;;;;5034775;28;19910;-52
2022/08/31 04:03:54;;;;;;;;;;;537.80;2406.40;;;;;;5034343;28;20323;-53
2022/08/31 04:06:21;;;;;;;;;;;537.80;2406.40;;;;;;5034567;28;19913;-52
2022/08/31 04:08:47;;;;;;;;;;;537.90;2406.40;;;;;;5034319;28;19909;-53
2022/08/31 04:11:14;;;;;;;;;;;537.80;2406.40;;;;;;5034203;28;20397;-52
2022/08/31 04:13:39;;;;;;;;;;;537.80;2406.40;;;;;;5034619;28;19955;-52
2022/08/31 04:16:08;;;;;;;;;;;537.90;2406.40;;;;;;5034093;28;20339;-53
2022/08/31 04:18:35;;;;;;;;;;;537.90;2406.40;;;;;;5034096;28;19909;-53
2022/08/31 04:21:01;;;;;;;;;;;537.90;2406.40;;;;;;5034220;28;20370;-53
2022/08/31 04:23:28;;;;;;;;;;;538.00;2406.40;;;;;;5033921;28;19925;-52
2022/08/31 04:25:54;;;;;;;;;;;538.10;2406.40;;;;;;5034236;28;20007;-52
2022/08/31 04:28:20;;;;;;;;;;;538.10;2406.40;;;;;;5034176;28;19945;-53
2022/08/31 04:30:47;;;;;;;;;;;538.20;2406.40;;;;;;5033754;28;19955;-52
2022/08/31 04:33:13;;;;;;;;;;;538.30;2406.40;;;;;;5033866;28;20347;-53
2022/08/31 04:35:40;;;;;;;;;;;538.40;2406.40;;;;;;5034064;28;19979;-53
2022/08/31 04:38:05;;;;;;;;;;;538.50;2406.40;;;;;;5033673;28;19932;-55
2022/08/31 04:40:31;;;;;;;;;;;538.50;2406.40;;;;;;5034117;28;20399;-57
2022/08/31 04:42:56;;;;;;;;;;;538.50;2406.40;;;;;;5033128;28;20012;-55
2022/08/31 04:45:23;;;;;;;;;;;538.50;2406.40;;;;;;5033045;28;19917;-59
2022/08/31 04:47:49;;;;;;;;;;;563.20;2432.00;;;;;;5033880;28;19910;-56
2022/08/31 04:50:15;;;;;;;;;;;563.20;2432.00;;;;;;5033433;28;19916;-56
2022/08/31 04:52:41;;;;;;;;;;;563.30;2432.00;;;;;;5033607;28;20409;-56
2022/08/31 04:55:07;;;;;;;;;;;563.40;2432.00;;;;;;5031795;28;19928;-55
2022/08/31 04:57:37;;;;;;;;;;;563.30;2432.00;;;;;;5033578;28;20294;-57
2022/08/31 05:00:04;;;;;;;;;;;563.40;2432.00;;;;;;5033486;28;19910;-56
2022/08/31 05:02:31;;;;;;;;;;;563.50;2432.00;;;;;;5033558;28;19952;-57
2022/08/31 05:04:57;;;;;;;;;;;563.60;2432.00;;;;;;5033129;28;19917;-56
2022/08/31 05:07:24;;;;;;;;;;;563.70;2432.00;;;;;;5033211;28;19964;-57
2022/08/31 05:09:50;;;;;;;;;;;563.80;2432.00;;;;;;5033617;28;20008;-57
2022/08/31 05:12:15;;;;;;;;;;;563.90;2432.00;;;;;;5033066;28;19963;-56
2022/08/31 05:14:42;;;;;;;;;;;564.10;2432.00;;;;;;5033228;28;19913;-58
2022/08/31 05:17:08;;;;;;;;;;;588.80;2432.00;;;;;;5033029;28;19962;-56
2022/08/31 05:19:34;;;;;;;;;;;564.10;2432.00;;;;;;5032983;28;19986;-56
2022/08/31 05:22:00;;;;;;;;;;;564.10;2432.00;;;;;;5032782;28;20370;-56
2022/08/31 05:24:26;;;;;;;;;;;;;;;;;;5032731;28;19944;-56
2022/08/31 05:26:52;;;;;;;;;;;;;;;;;;5033008;28;19913;-56
2022/08/31 05:29:18;;;;;;;;;;;;;;;;;;5032966;28;19951;-56
2022/08/31 05:31:44;;;;;;;;;;;;;;;;;;5032748;28;19956;-56
2022/08/31 05:34:11;;;;;;;;;;;;;;;;;;5033228;28;19997;-56
2022/08/31 05:36:37;;;;;;;;;;;;;;;;;;5032587;28;19915;-56
2022/08/31 05:39:03;;;;;;;;;;;;;;;;;;5032602;28;19905;-56
2022/08/31 05:41:29;;;;;;;;;;;;;;;;;;5032757;28;19992;-55
2022/08/31 05:43:55;;;;;;;;;;;;;;;;;;5032410;28;19940;-55
2022/08/31 05:46:21;;;;;;;;;;;;;;;;;;5032626;28;19913;-56
2022/08/31 05:48:47;;;;;;;;;;;;;;;;;;5032389;28;19955;-56
2022/08/31 05:51:13;;;;;;;;;;;;;;;;;;5032510;28;19913;-56
2022/08/31 05:53:39;;;;;;;;;;;589.20;2432.00;;;;;;5032563;28;20282;-55
2022/08/31 05:56:09;;;;;;;;;;;588.90;2432.00;;;;;;5032076;28;19909;-57
2022/08/31 05:58:35;;;;;;;;;;;;;;;;;;5032431;28;20000;-55
2022/08/31 06:01:00;;;;;;;;;;;589.30;2432.00;;;;;;5032377;28;19958;-56
2022/08/31 06:03:27;;;;;;;;;;;589.30;2432.00;;;;;;5032185;28;20320;-55
2022/08/31 06:05:53;;;;;;;;;;;589.50;2432.00;;;;;;5032021;28;20019;-57
2022/08/31 06:08:19;;;;;;;;;;;;;;;;;;5032214;28;19955;-56
2022/08/31 06:10:45;;;;;;;;;;;;;;;;;;5031990;28;19909;-56
2022/08/31 06:13:15;;;;;;;;;;;614.90;2432.00;;;;;;5032382;28;19909;-56
2022/08/31 06:15:41;;;;;;;;;;;615.00;2432.00;;;;;;5032098;28;19915;-57
2022/08/31 06:18:06;;;;;;;;;;;615.10;2432.00;;;;;;5031843;28;19923;-56
2022/08/31 06:20:36;;;;;;;;;;;615.30;2432.00;;;;;;5031925;28;19996;-56
2022/08/31 06:23:05;;;;;;;;;;;640.40;2432.00;;;;;;5031776;28;19929;-56
2022/08/31 06:25:32;;;;;;;;;;;640.60;2432.00;;;;;;5031823;28;19917;-56
2022/08/31 06:27:58;;;;;;;;;;;640.70;2432.00;;;;;;5032051;28;20264;-57
2022/08/31 06:30:26;;;;;;;;;;;665.60;2432.00;;;;;;5031551;28;19916;-56
2022/08/31 06:32:52;;;;;;;;;;;665.70;2432.00;;;;;;5031802;28;20060;-57
2022/08/31 06:35:17;;;;;;;;;;;665.90;2432.00;;;;;;5031663;28;19977;-59
2022/08/31 06:37:44;;;;;;;;;;;666.50;2432.00;;;;;;5031326;28;19917;-56
2022/08/31 06:40:10;;;;;;;;;;;666.50;2432.00;;;;;;5031746;28;19909;-56
2022/08/31 06:42:35;;;;;;;;;;;666.50;2432.00;;;;;;5031268;28;20363;-56
2022/08/31 06:45:02;;;;;;;;;;;691.60;2432.00;;;;;;5031583;28;19936;-56
2022/08/31 06:47:27;;;;;;;;;;;691.70;2432.00;;;;;;5031225;28;19910;-56
2022/08/31 06:49:53;;;;;;;;;;;;;;;;;;5031533;28;19916;-57
2022/08/31 06:52:19;;;;;;;;;;;716.80;2432.00;;;;;;5031356;28;19913;-56
2022/08/31 06:54:45;;;;;;;;;;;717.40;2432.00;;;;;;5031174;28;20364;-56
2022/08/31 06:57:11;;;;;;;;;;;717.50;2432.00;;;;;;5031372;28;19915;-56
2022/08/31 06:59:36;;;;;;;;;;;717.70;2432.00;;;;;;5031058;28;19916;-57
2022/08/31 07:02:02;;;;;;;;;;;742.40;2432.00;;;;;;5031252;28;19913;-56
2022/08/31 07:04:31;;;;;;;;;;;743.00;2432.00;;;;;;5031013;28;20355;-55
2022/08/31 07:06:56;;;;;;;;;;;743.00;2432.00;;;;;;5030448;28;19909;-56
2022/08/31 07:09:22;;;;;;;;;;;742.90;2432.00;;;;;;5031185;28;20417;-57
2022/08/31 07:11:50;;;;;;;;;;;743.00;2432.00;;;;;;5030839;28;19999;-58
2022/08/31 07:14:17;;;;;;;;;;;768.00;2432.00;;;;;;5031049;28;19932;-56
2022/08/31 07:16:44;;;;;;;;;;;768.40;2406.40;;;;;;5030968;28;19948;-57
2022/08/31 07:19:10;;;;;;;;;;;;;;;;;;5031075;28;19909;-57
2022/08/31 07:21:39;;;;;;;;;;;768.90;2304.00;;;;;;5030650;28;20062;-57
2022/08/31 07:24:05;;;;;;;;;;;794.20;2176.00;;;;;;5030686;28;19932;-56
2022/08/31 07:26:36;;;;;;;;;;;819.60;2124.80;;;;;;5031153;28;19910;-57
2022/08/31 07:29:05;;;;;;;;;;;819.50;2022.40;;;;;;5030976;28;20363;-57
2022/08/31 07:31:39;;;;;;;;;;;819.80;2048.00;;;;;;5030821;28;20063;-56
2022/08/31 07:34:09;;;;;;;;;;;819.60;1971.20;;;;;;5030806;28;19909;-56
2022/08/31 07:42:07;;;;;;;;;;;820.10;1971.20;;;;;;5030674;28;19909;-57
2022/08/31 07:42:08;;;;;;;;;;;870.40;1920.00;;;;;;5030762;28;19917;-58
2022/08/31 07:44:34;;;;;;;;;;;871.20;1843.20;;;;;;5030632;28;20255;-56
2022/08/31 07:47:00;;;;;;;;;;;896.80;1715.20;;;;;;5030728;28;19998;-57
2022/08/31 07:49:25;;;;;;;;;;;922.00;1689.60;;;;;;5030813;28;20004;-58
2022/08/31 07:51:52;;;;;;;;;;;973.60;1587.20;;;;;;5030744;28;19916;-57
2022/08/31 07:54:19;;;;;;;;;;;1024.60;1484.80;;;;;;5030699;28;19960;-56
2022/08/31 07:56:49;;;;;;;;;;;1075.60;1356.80;;;;;;5030521;28;19909;-57
2022/08/31 07:59:16;;;;;;;;;;;1101.50;1305.60;;;;;;5030499;28;20386;-58
2022/08/31 08:01:42;;;;;;;;;;;1101.50;1280.00;;;;;;5030464;28;20286;-58
2022/08/31 08:04:08;;;;;;;;;;;1126.60;1254.40;;;;;;5030636;28;19963;-60
2022/08/31 08:06:34;;;;;;;;;;;1127.00;1228.80;;;;;;5030642;28;19996;-59
2022/08/31 08:09:05;;;;;;;;;;;1127.00;1228.80;;;;;;5030739;28;20374;-58
2022/08/31 08:11:31;;;;;;;;;;;1152.00;1203.20;;;;;;5030590;28;19909;-62
2022/08/31 08:13:57;;;;;;;;;;;1152.40;1203.20;;;;;;5030268;28;20318;-59
2022/08/31 08:16:23;;;;;;;;;;;1152.50;1177.60;;;;;;5030201;28;19956;-58
2022/08/31 08:18:49;;;;;;;;;;;1152.40;1177.60;;;;;;5032829;28;19956;-59
2022/08/31 08:21:15;;;;;;;;;;;1152.90;1152.00;;;;;;5033898;28;19956;-62
2022/08/31 08:23:40;;;;;;;;;;;1177.60;1126.40;;;;;;5033967;28;19932;-63
2022/08/31 08:26:08;;;;;;;;;;;1152.70;1152.00;;;;;;5033798;28;19913;-57
2022/08/31 08:28:33;;;;;;;;;;;1127.30;1203.20;;;;;;5033839;28;19916;-59
2022/08/31 08:31:02;;;;;;;;;;;;;;;;;;5034083;28;19909;-57
2022/08/31 08:33:29;;;;;;;;;;;1152.90;1126.40;;;;;;5033966;28;19931;-60
2022/08/31 08:35:59;;;;;;;;;;;1152.50;1126.40;;;;;;5033893;28;19909;-59
2022/08/31 08:38:25;;;;;;;;;;;1126.50;1203.20;;;;;;5033887;28;19916;-61
2022/08/31 08:40:51;;;;;;;;;;;1101.20;1203.20;;;;;;5033917;28;19935;-57
2022/08/31 08:43:18;;;;;;;;;;;1101.30;1203.20;;;;;;5033563;28;19909;-61
2022/08/31 08:45:45;;;;;;;;;;;1075.70;1203.20;;;;;;5033435;28;20326;-56
2022/08/31 08:48:12;;;;;;;;;;;999.30;1331.20;;;;;;5033800;28;20371;-60
2022/08/31 08:50:40;;;;;;;;;;;973.70;1356.80;;;;;;5033520;28;19910;-57
2022/08/31 08:53:09;;;;;;;;;;;948.10;1408.00;;;;;;5033503;28;20407;-60
2022/08/31 08:55:36;;;;;;;;;;;947.50;1459.20;;;;;;5033466;28;19909;-58
2022/08/31 08:58:06;;;;;;;;;;;922.00;1459.20;;;;;;5033743;28;20009;-57
2022/08/31 09:00:33;;;;;;;;;;;921.80;1459.20;;;;;;5033491;28;19920;-60
2022/08/31 09:03:19;;;;;;;;;;;896.90;1484.80;;;;;;5033721;28;19909;-60
2022/08/31 09:05:44;;;;;;;;;;;896.20;1484.80;;;;;;5033304;28;20345;-57
2022/08/31 09:08:30;;;;;;;;;;;871.30;1459.20;;;;;;5033512;28;19945;-56
2022/08/31 09:11:07;;;;;;;;;;;871.30;1510.40;;;;;;5033056;28;19917;-57
2022/08/31 09:13:32;;;;;;;;;;;871.00;1587.20;;;;;;5033302;28;20002;-58
2022/08/31 09:16:19;;;;;;;;;;;870.90;1587.20;;;;;;5033026;28;19949;-56
2022/08/31 09:18:48;;;;;;;;;;;870.80;1536.00;;;;;;5033006;28;19916;-60
2022/08/31 09:21:20;;;;;;;;;;;870.80;1587.20;;;;;;5032866;28;19959;-58
2022/08/31 09:23:50;;;;;;;;;;;870.70;1561.60;;;;;;5032801;28;19939;-60
2022/08/31 09:26:16;;;;;;;;;;;845.50;1561.60;;;;;;5033059;28;20289;-57
2022/08/31 09:28:44;;;;;;;;;;;870.40;1587.20;;;;;;5033011;28;19996;-59
2022/08/31 09:31:24;;;;;;;;;;;870.50;1561.60;;;;;;5032524;28;19913;-60
2022/08/31 09:33:50;;;;;;;;;;;845.70;1587.20;;;;;;5032862;28;19955;-56
2022/08/31 09:36:17;;;;;;;;;;;870.40;1536.00;;;;;;5032634;28;19913;-56
2022/08/31 09:38:45;;;;;;;;;;;870.40;1561.60;;;;;;5032729;28;20374;-59
2022/08/31 09:41:19;;;;;;;;;;;870.40;1561.60;;;;;;5032721;28;20347;-59
2022/08/31 09:43:46;;;;;;;;;;;870.50;1587.20;;;;;;5032575;28;20355;-59
2022/08/31 09:46:22;;;;;;;;;;;870.40;1612.80;;;;;;5032668;28;20477;-60
2022/08/31 09:48:50;;;;;;;;;;;870.90;1536.00;;;;;;5032427;28;19909;-58
2022/08/31 09:51:29;;;;;;;;;;;870.70;1536.00;;;;;;5032320;28;19955;-60
2022/08/31 09:57:05;;;;;;;;;;;870.40;1561.60;;;;;;4971583;28;20442;-57
2022/08/31 09:59:40;;;;;;;;;;;870.80;1612.80;;;;;;4954730;28;19944;-60
2022/08/31 10:02:21;;;;;;;;;;;870.70;1587.20;;;;;;4971356;28;19953;-60
2022/08/31 10:04:49;;;;;;;;;;;845.70;1561.60;;;;;;4971015;28;19969;-60
2022/08/31 10:07:26;;;;;;;;;;;845.70;1587.20;;;;;;4971247;28;19917;-60
2022/08/31 10:09:57;;;;;;;;;;;870.40;1612.80;;;;;;4971327;28;20514;-60
2022/08/31 10:12:35;;;;;;;;;;;845.70;1612.80;;;;;;4971106;28;20400;-57
2022/08/31 10:15:03;;;;;;;;;;;845.50;1587.20;;;;;;4971300;28;20029;-60
2022/08/31 10:17:41;;;;;;;;;;;844.90;1612.80;;;;;;4971221;28;19910;-56
2022/08/31 10:20:15;;;;;;;;;;;844.90;1638.40;;;;;;4970922;28;20038;-60
2022/08/31 10:22:45;;;;;;;;;;;844.90;1638.40;;;;;;4970763;28;19933;-60
2022/08/31 10:25:14;;;;;;;;;;;820.10;1612.80;;;;;;4971110;28;19977;-56
2022/08/31 10:27:46;;;;;;;;;;;819.90;1638.40;;;;;;4970974;28;20331;-59
2022/08/31 10:30:12;;;;;;;;;;;;;;;;;;4970959;28;19910;-57
2022/08/31 10:32:56;;;;;;;;;;;794.00;1715.20;;;;;;4973793;28;19910;-60
2022/08/31 10:35:42;;;;;;;;;;;768.90;1740.80;;;;;;5031717;28;19909;-60
2022/08/31 10:38:20;;;;;;;;;;;768.60;1766.40;;;;;;5031558;28;20352;-59
2022/08/31 10:40:49;;;;;;;;;;;768.40;1792.00;;;;;;5031148;28;20278;-60
2022/08/31 10:43:20;;;;;;;;;;;768.10;1843.20;;;;;;5030906;28;20344;-57
2022/08/31 10:45:48;;;;;;;;;;;743.30;1843.20;;;;;;5031569;28;19963;-60
2022/08/31 10:48:13;;;;;;;;;;;;;;;;;;5031360;28;19917;-57
2022/08/31 10:50:43;;;;;;;;;;;;;;;;;;5031467;28;20279;-60
2022/08/31 10:53:12;;;;;;;;;;;;;;;;;;5030564;28;20267;-61
2022/08/31 10:55:45;;;;;;;;;;;768.10;1843.20;;;;;;5031213;28;19944;-60
2022/08/31 10:58:30;;;;;;;;;;;742.80;1868.80;;;;;;5031340;28;20291;-57
2022/08/31 11:01:07;;;;;;;;;;;743.00;1945.60;;;;;;5031021;28;19916;-60
2022/08/31 11:03:33;;;;;;;;;;;;;;;;;;5031164;28;20000;-57
2022/08/31 11:05:59;;;;;;;;;;;743.00;1996.80;;;;;;5031243;28;20011;-59
2022/08/31 11:08:24;;;;;;;;;;;768.00;1996.80;;;;;;5031050;28;20332;-56
2022/08/31 11:10:53;;;;;;;;;;;;;;;;;;5031010;28;19913;-57
2022/08/31 11:13:34;;;;;;;;;;;768.10;1945.60;;;;;;5031024;28;19909;-59
2022/08/31 11:16:00;;;;;;;;;;;;;;;;;;5031000;28;19910;-56
2022/08/31 11:18:27;;;;;;;;;;;;;;;;;;5030948;28;19909;-57
2022/08/31 11:20:53;;;;;;;;;;;;;;;;;;5031028;28;19963;-59
2022/08/31 11:23:19;;;;;;;;;;;;;;;;;;5030895;28;19970;-55
2022/08/31 11:25:46;;;;;;;;;;;;;;;;;;5031013;28;19948;-56
2022/08/31 11:28:22;;;;;;;;;;;768.60;2022.40;;;;;;5031150;28;19955;-58
2022/08/31 11:30:48;;;;;;;;;;;743.10;2124.80;;;;;;5030899;28;19916;-55
2022/08/31 11:33:18;;;;;;;;;;;717.60;2227.20;;;;;;5030659;28;19928;-56
2022/08/31 11:35:59;;;;;;;;;;;717.40;2278.40;;;;;;5030762;28;20375;-56
2022/08/31 11:38:39;;;;;;;;;;;717.70;2380.80;;;;;;5030967;28;19909;-56
2022/08/31 11:41:09;;;;;;;;;;;742.60;2432.00;;;;;;5030678;28;20355;-57
2022/08/31 11:43:35;;;;;;;;;;;743.30;2432.00;;;;;;5030753;28;19909;-56
2022/08/31 11:46:29;;;;;;;;;;;743.30;2432.00;;;;;;5030754;28;19917;-57
2022/08/31 11:48:54;;;;;;;;;;;743.30;2432.00;;;;;;5030626;28;19960;-57
2022/08/31 11:51:32;;;;;;;;;;;768.30;2432.00;;;;;;5030723;28;19913;-58
2022/08/31 11:54:00;;;;;;;;;;;743.30;2406.40;;;;;;5033240;28;19913;-57
2022/08/31 11:56:37;;;;;;;;;;;768.00;2329.60;;;;;;5034482;28;19941;-56
2022/08/31 11:59:17;;;;;;;;;;;768.40;2252.80;;;;;;5034741;28;19913;-56
2022/08/31 12:01:43;;;;;;;;;;;768.60;2201.60;;;;;;5034563;28;19948;-57
2022/08/31 12:04:27;;;;;;;;;;;768.60;2227.20;;;;;;5034460;28;19913;-59
2022/08/31 12:06:58;;;;;;;;;;;793.60;2227.20;;;;;;5034410;28;19967;-59
2022/08/31 12:09:35;;;;;;;;;;;793.60;2124.80;;;;;;5034336;28;19912;-57
2022/08/31 12:12:09;;;;;;;;;;;768.90;2201.60;;;;;;5034429;28;19909;-59
2022/08/31 12:14:49;;;;;;;;;;;793.70;2176.00;;;;;;5034351;28;19909;-59
2022/08/31 12:17:21;;;;;;;;;;;768.90;2124.80;;;;;;5034107;28;19909;-59
2022/08/31 12:19:59;;;;;;;;;;;768.90;2176.00;;;;;;5034091;28;19909;-58
2022/08/31 12:25:39;;;;;;;;;;;768.90;2201.60;;;;;;5034259;28;19967;-59
2022/08/31 12:28:08;;;;;;;;;;;768.10;2201.60;;;;;;5033973;28;19914;-57
2022/08/31 12:30:33;;;;;;;;;;;743.30;2278.40;;;;;;5034068;28;20325;-57
2022/08/31 12:33:13;;;;;;;;;;;743.10;2278.40;;;;;;5034075;28;20008;-56
2022/08/31 12:35:39;;;;;;;;;;;742.60;2304.00;;;;;;5034248;28;20342;-60
2022/08/31 12:38:09;;;;;;;;;;;742.90;2227.20;;;;;;5033946;28;19909;-59
2022/08/31 12:40:40;;;;;;;;;;;742.70;2380.80;;;;;;5033755;28;19948;-59
2022/08/31 12:43:09;;;;;;;;;;;742.90;2355.20;;;;;;5033711;28;19910;-58
2022/08/31 12:45:51;;;;;;;;;;;743.00;2380.80;;;;;;5033485;28;19923;-60
2022/08/31 12:48:35;;;;;;;;;;;743.30;2406.40;;;;;;5033729;28;20326;-56
2022/08/31 12:51:29;;;;;;;;;;;743.00;2252.80;;;;;;5033729;28;19916;-59
2022/08/31 12:54:00;;;;;;;;;;;743.00;2252.80;;;;;;5033692;28;19987;-59
2022/08/31 12:56:29;;;;;;;;;;;742.80;2252.80;;;;;;5033364;28;19916;-60
2022/08/31 12:58:57;;;;;;;;;;;743.30;2227.20;;;;;;5033328;28;19916;-57
2022/08/31 13:01:25;;;;;;;;;;;768.40;2201.60;;;;;;5033581;28;19999;-56
2022/08/31 13:04:00;;;;;;;;;;;768.80;2252.80;;;;;;5032297;28;20369;-58
2022/08/31 13:06:31;;;;;;;;;;;768.60;2176.00;;;;;;5030836;28;19913;-57
2022/08/31 13:08:57;;;;;;;;;;;768.70;2201.60;;;;;;5031346;28;19920;-57
2022/08/31 13:11:25;;;;;;;;;;;768.90;2176.00;;;;;;5031782;28;20302;-59
2022/08/31 13:13:52;;;;;;;;;;;768.70;2201.60;;;;;;5031381;28;20015;-58
2022/08/31 13:16:17;;;;;;;;;;;768.00;2150.40;;;;;;5031073;28;19913;-58
2022/08/31 13:18:45;;;;;;;;;;;743.30;2150.40;;;;;;5030709;28;19916;-56
2022/08/31 13:21:11;;;;;;;;;;;768.20;2124.80;;;;;;5031181;28;19917;-58
2022/08/31 13:23:39;;;;;;;;;;;743.20;2124.80;;;;;;5030749;28;19932;-57
2022/08/31 13:26:20;;;;;;;;;;;743.30;2150.40;;;;;;5030958;28;20294;-59
2022/08/31 13:28:49;;;;;;;;;;;768.20;2124.80;;;;;;5030981;28;19913;-57
2022/08/31 13:31:18;;;;;;;;;;;768.50;2124.80;;;;;;5030281;28;19913;-58
2022/08/31 13:33:43;;;;;;;;;;;768.60;2176.00;;;;;;5030722;28;19996;-57
2022/08/31 13:36:30;;;;;;;;;;;768.80;2252.80;;;;;;5031086;28;20000;-58
2022/08/31 13:38:56;;;;;;;;;;;768.60;2304.00;;;;;;5030665;28;19909;-57
2022/08/31 13:41:27;;;;;;;;;;;768.80;2252.80;;;;;;5030742;28;19913;-58
2022/08/31 13:44:01;;;;;;;;;;;793.60;2252.80;;;;;;5030137;28;19913;-58
2022/08/31 13:46:28;;;;;;;;;;;793.90;2252.80;;;;;;5030621;28;19917;-57
2022/08/31 13:48:55;;;;;;;;;;;793.80;2304.00;;;;;;5030484;28;19970;-58
2022/08/31 13:51:21;;;;;;;;;;;793.70;2227.20;;;;;;5030514;28;19920;-58
2022/08/31 13:53:53;;;;;;;;;;;768.90;2227.20;;;;;;5030358;28;19920;-57
2022/08/31 13:59:32;;;;;;;;;;;793.60;2150.40;;;;;;5030535;28;20429;-58
2022/08/31 14:02:04;;;;;;;;;;;768.30;2073.60;;;;;;5029542;28;19909;-58
2022/08/31 14:04:42;;;;;;;;;;;768.50;2150.40;;;;;;5030401;28;19924;-58
2022/08/31 14:07:08;;;;;;;;;;;768.60;2150.40;;;;;;5030108;28;19932;-57
2022/08/31 14:09:39;;;;;;;;;;;768.60;2124.80;;;;;;5029658;28;19909;-58
2022/08/31 14:12:06;;;;;;;;;;;768.90;2073.60;;;;;;5030018;28;19913;-57
2022/08/31 14:14:39;;;;;;;;;;;768.90;2073.60;;;;;;5030261;28;19917;-57
2022/08/31 14:17:05;;;;;;;;;;;768.80;2073.60;;;;;;5029697;28;19964;-58
2022/08/31 14:19:32;;;;;;;;;;;768.90;2073.60;;;;;;5030060;28;19955;-56